Time;durP1;ratioP1;P1;durP2;ratioP2;P2;SDS_P1;SDS_P2;PMS_P1;PMS_P2;Temp;Humidity;BMP_temperature;BMP_pressure;BME280_temperature;BME280_humidity;BME280_pressure;Samples;Min_cycle;Max_cycle;Signal;HPM_P1;HPM_P2
2023/05/30 00:00:57;;;;;;;7.65;4.58;;;;;;;23.06;71.29;99675.51;1694218;84;21360;-83
2023/05/30 00:04:03;;;;;;;15.45;4.60;;;;;;;22.90;71.99;99677.38;1695603;84;21309;-82
2023/05/30 00:07:08;;;;;;;10.58;4.85;;;;;;;22.93;72.11;99677.41;1695034;84;21293;-82
2023/05/30 00:10:15;;;;;;;13.35;6.53;;;;;;;22.74;72.99;99674.79;1694476;84;21410;-83
2023/05/30 00:13:20;;;;;;;10.05;5.95;;;;;;;22.92;72.76;99670.16;1695077;84;21289;-83
2023/05/30 00:16:28;;;;;;;13.68;5.25;;;;;;;22.77;73.38;99675.06;1694945;84;21316;-83
2023/05/30 00:19:34;;;;;;;10.88;5.30;;;;;;;22.46;74.90;99669.91;1695443;84;21897;-83
2023/05/30 00:22:45;;;;;;;10.25;5.35;;;;;;;22.77;74.31;99672.83;1694706;84;21300;-81
2023/05/30 00:25:48;;;;;;;16.75;5.20;;;;;;;22.67;74.57;99668.88;1695346;84;21361;-82
2023/05/30 00:28:55;;;;;;;8.83;4.53;;;;;;;22.76;74.52;99676.73;1695582;84;21325;-82
2023/05/30 00:32:02;;;;;;;12.37;5.03;;;;;;;22.78;74.44;99667.56;1694425;84;21324;-82
2023/05/30 00:35:09;;;;;;;7.20;4.60;;;;;;;23.01;73.70;99674.10;1695504;84;21317;-82
2023/05/30 00:38:15;;;;;;;9.30;5.20;;;;;;;23.29;72.40;99673.31;1694415;84;21663;-83
2023/05/30 00:41:20;;;;;;;10.63;5.22;;;;;;;23.45;71.53;99677.83;1695105;84;21332;-83
2023/05/30 00:44:26;;;;;;;15.60;5.67;;;;;;;23.62;70.81;99658.88;1695495;84;21293;-83
2023/05/30 00:47:33;;;;;;;8.80;4.60;;;;;;;23.05;72.91;99668.78;1694156;84;21363;-82
2023/05/30 00:50:41;;;;;;;8.95;4.42;;;;;;;23.09;72.77;99662.39;1695453;84;21320;-83
2023/05/30 00:53:48;;;;;;;9.28;4.78;;;;;;;22.76;74.04;99669.20;1695382;84;21391;-83
2023/05/30 00:56:54;;;;;;;10.28;4.90;;;;;;;22.97;73.15;99661.81;1694089;84;21328;-81
2023/05/30 01:00:01;;;;;;;7.30;4.45;;;;;;;22.72;73.99;99655.52;1693829;84;21341;-81
2023/05/30 01:03:08;;;;;;;11.80;4.92;;;;;;;22.87;73.82;99661.19;1693864;84;21289;-81
2023/05/30 01:06:14;;;;;;;9.68;4.80;;;;;;;22.89;73.89;99659.55;1693853;84;21324;-81
2023/05/30 01:09:21;;;;;;;10.90;4.65;;;;;;;22.93;73.66;99661.52;1695279;84;21288;-81
2023/05/30 01:12:52;;;;;;;10.03;5.13;;;;;;;22.92;73.78;99652.88;1696349;84;21296;-81
2023/05/30 01:16:02;;;;;;;8.55;4.37;;;;;;;23.01;73.75;99655.97;1700440;84;21925;-80
2023/05/30 01:19:21;;;;;;;8.58;4.45;;;;;;;22.67;74.99;99650.77;1700634;84;21890;-80
2023/05/30 01:22:49;;;;;;;6.75;4.10;;;;;;;22.52;75.98;99656.27;1699785;84;21296;-81
2023/05/30 01:26:27;;;;;;;8.23;4.47;;;;;;;22.61;75.94;99646.28;1680766;84;21301;-81
2023/05/30 01:29:34;;;;;;;6.75;3.58;;;;;;;22.93;74.78;99650.92;1700508;84;21293;-80
2023/05/30 01:32:40;;;;;;;6.22;3.45;;;;;;;22.83;74.96;99642.48;1699390;84;21332;-80
2023/05/30 01:35:48;;;;;;;4.70;3.47;;;;;;;23.06;74.61;99646.22;1699337;84;21348;-80
2023/05/30 01:38:55;;;;;;;6.17;4.12;;;;;;;22.80;75.66;99641.63;1699568;84;21336;-80
2023/05/30 01:42:26;;;;;;;9.28;4.03;;;;;;;22.77;75.65;99636.03;1699871;84;21336;-80
2023/05/30 01:45:51;;;;;;;7.90;5.03;;;;;;;22.75;75.97;99637.43;1699378;84;21309;-80
2023/05/30 01:49:21;;;;;;;8.85;4.50;;;;;;;22.82;75.78;99639.39;1699333;84;21340;-80
2023/05/30 01:52:28;;;;;;;11.03;4.55;;;;;;;22.80;75.98;99637.45;1699327;84;21320;-81
2023/05/30 01:55:33;;;;;;;8.85;5.08;;;;;;;22.80;75.76;99636.05;1700641;84;21929;-80
2023/05/30 01:58:39;;;;;;;9.25;5.20;;;;;;;23.03;75.08;99631.42;1699457;84;21312;-80
2023/05/30 02:01:46;;;;;;;10.28;5.28;;;;;;;22.41;77.50;99623.91;1700145;84;21889;-81
2023/05/30 02:04:51;;;;;;;10.98;5.78;;;;;;;21.98;79.16;99627.23;1700942;84;21839;-81
2023/05/30 02:07:57;;;;;;;8.18;5.42;;;;;;;22.11;79.27;99630.98;1700869;84;21340;-81
2023/05/30 02:11:02;;;;;;;9.40;5.45;;;;;;;21.92;79.98;99622.72;1700627;84;21282;-81
2023/05/30 02:14:11;;;;;;;11.35;5.35;;;;;;;21.78;80.89;99628.45;1687717;84;21864;-81
2023/05/30 02:17:21;;;;;;;11.45;5.75;;;;;;;21.79;81.22;99624.59;1685428;85;21833;-81
2023/05/30 02:20:25;;;;;;;7.50;4.50;;;;;;;21.88;80.91;99624.39;1685377;85;21323;-80
2023/05/30 02:23:32;;;;;;;6.00;3.83;;;;;;;22.12;79.83;99628.48;1686319;85;21366;-81
2023/05/30 02:26:37;;;;;;;10.93;4.78;;;;;;;22.05;79.97;99629.22;1686108;85;21314;-81
2023/05/30 02:29:42;;;;;;;6.42;4.10;;;;;;;22.11;79.85;99618.45;1687077;85;21283;-81
2023/05/30 02:32:49;;;;;;;6.22;4.15;;;;;;;22.07;79.93;99620.62;1686924;85;21343;-80
2023/05/30 02:35:56;;;;;;;7.92;4.85;;;;;;;22.08;79.63;99629.25;1686758;85;21314;-81
2023/05/30 02:39:03;;;;;;;8.38;4.85;;;;;;;22.22;79.17;99635.22;1685918;85;21872;-81
2023/05/30 02:42:10;;;;;;;5.47;3.95;;;;;;;22.28;78.80;99629.95;1685880;85;21310;-80
2023/05/30 02:45:10;;;;;;;8.58;3.80;;;;;;;22.24;78.82;99641.34;1686976;85;21279;-81
2023/05/30 02:48:01;;;;;;;5.87;4.20;;;;;;;22.19;78.83;99644.38;1686812;85;21327;-81
2023/05/30 02:51:07;;;;;;;7.97;4.25;;;;;;;22.16;79.13;99629.63;1686735;85;21352;-81
2023/05/30 02:54:14;;;;;;;7.05;4.10;;;;;;;22.10;79.55;99638.16;1686682;85;21911;-80
2023/05/30 02:57:28;;;;;;;6.67;4.55;;;;;;;21.91;80.63;99636.36;1659282;85;21306;-80
2023/05/30 03:00:41;;;;;;;7.97;4.83;;;;;;;21.88;81.03;99628.00;1685901;85;21987;-80
2023/05/30 03:03:47;;;;;;;12.75;4.87;;;;;;;21.90;80.99;99625.78;1685815;85;22204;-80
2023/05/30 03:07:03;;;;;;;6.85;4.50;;;;;;;21.95;81.04;99631.94;1685942;85;21904;-80
2023/05/30 03:10:11;;;;;;;6.42;4.62;;;;;;;22.03;80.64;99632.84;1684655;85;21326;-80
2023/05/30 03:13:17;;;;;;;9.20;4.60;;;;;;;22.22;80.04;99632.44;1686398;83;21279;-81
2023/05/30 03:16:23;;;;;;;9.00;4.83;;;;;;;22.14;80.04;99642.96;1693933;84;21332;-81
2023/05/30 03:19:31;;;;;;;7.45;4.90;;;;;;;22.62;78.39;99631.23;1693663;84;21333;-81
2023/05/30 03:22:37;;;;;;;13.18;6.12;;;;;;;22.50;78.02;99630.64;1693271;84;21324;-82
2023/05/30 03:25:43;;;;;;;8.90;5.30;;;;;;;22.66;77.44;99636.55;1693164;84;21846;-81
2023/05/30 03:28:50;;;;;;;7.33;5.25;;;;;;;22.72;77.12;99642.98;1693852;84;22020;-81
2023/05/30 03:31:56;;;;;;;7.75;5.37;;;;;;;22.90;76.58;99629.98;1694657;84;21359;-80
2023/05/30 03:35:11;;;;;;;8.85;5.53;;;;;;;22.78;76.77;99629.37;1695489;84;21861;-80
2023/05/30 03:38:10;;;;;;;12.55;5.70;;;;;;;22.88;76.19;99632.75;1799823;79;21299;-80
2023/05/30 03:41:17;;;;;;;8.18;5.50;;;;;;;22.82;76.36;99629.11;1786581;80;21293;-80
2023/05/30 03:44:23;;;;;;;12.85;5.37;;;;;;;22.50;77.27;99632.03;1768735;81;21194;-81
2023/05/30 03:47:29;;;;;;;9.13;5.87;;;;;;;22.24;78.31;99621.85;1767388;80;21830;-81
2023/05/30 03:50:36;;;;;;;15.13;5.80;;;;;;;22.35;78.68;99625.00;1767339;80;21377;-81
2023/05/30 03:53:41;;;;;;;13.15;6.42;;;;;;;22.41;78.60;99628.08;1768512;81;21277;-81
2023/05/30 03:56:46;;;;;;;11.30;5.45;;;;;;;22.88;76.72;99629.95;1767855;80;21340;-81
2023/05/30 03:59:53;;;;;;;11.60;6.30;;;;;;;23.20;75.41;99627.02;1768052;81;21289;-82
2023/05/30 04:03:02;;;;;;;9.88;5.85;;;;;;;22.92;76.18;99626.38;1768689;81;21794;-81
2023/05/30 04:06:08;;;;;;;14.50;6.08;;;;;;;22.93;76.14;99632.80;1768478;80;21166;-81
2023/05/30 04:09:13;;;;;;;8.20;5.80;;;;;;;23.05;75.98;99630.58;1768498;81;21305;-81
2023/05/30 04:12:19;;;;;;;11.28;6.65;;;;;;;23.04;75.79;99628.91;1767207;80;21857;-81
2023/05/30 04:15:25;;;;;;;7.37;4.95;;;;;;;22.95;75.56;99634.17;1767128;80;21304;-80
2023/05/30 04:18:31;;;;;;;9.40;5.30;;;;;;;23.18;74.84;99633.41;1768593;81;21751;-80
2023/05/30 04:21:37;;;;;;;10.58;5.58;;;;;;;23.09;74.60;99633.10;1768254;80;21293;-80
2023/05/30 04:24:42;;;;;;;8.65;5.60;;;;;;;23.33;73.76;99633.98;1768709;81;21783;-80
2023/05/30 04:27:49;;;;;;;10.58;5.50;;;;;;;23.37;73.58;99635.11;1768601;81;21199;-81
2023/05/30 04:30:56;;;;;;;12.40;5.53;;;;;;;23.31;73.24;99634.27;1767663;80;21294;-82
2023/05/30 04:34:03;;;;;;;14.68;6.22;;;;;;;23.43;72.99;99633.99;1767857;81;21178;-83
2023/05/30 04:37:10;;;;;;;8.88;6.17;;;;;;;23.48;72.82;99638.22;1767041;80;21285;-82
2023/05/30 04:41:47;;;;;;;11.25;5.47;;;;;;;22.61;76.17;99637.09;1918170;75;28311;-82
2023/05/30 04:44:54;;;;;;;15.23;6.30;;;;;;;22.20;78.27;99639.64;1889213;76;21330;-82
2023/05/30 04:48:03;;;;;;;9.88;5.97;;;;;;;22.20;78.27;99640.48;1890004;76;21271;-82
2023/05/30 04:51:08;;;;;;;10.32;5.85;;;;;;;20.62;85.62;99640.33;1857564;77;21294;-82
2023/05/30 04:54:14;;;;;;;13.55;6.62;;;;;;;19.62;92.62;99647.72;1889858;76;21259;-81
2023/05/30 04:57:19;;;;;;;9.88;5.50;;;;;;;19.56;95.32;99644.50;1889946;76;21275;-82
2023/05/30 05:00:26;;;;;;;11.12;5.35;;;;;;;19.31;98.30;99648.23;1889304;76;21270;-82
2023/05/30 05:03:33;;;;;;;9.93;5.78;;;;;;;19.41;97.98;99647.02;1890034;76;21207;-82
2023/05/30 05:06:39;;;;;;;8.38;5.37;;;;;;;19.58;97.93;99640.95;1889987;76;21251;-82
2023/05/30 05:09:47;;;;;;;11.25;5.92;;;;;;;19.97;96.39;99646.59;1888308;76;21695;-82
2023/05/30 05:12:53;;;;;;;12.55;5.80;;;;;;;20.11;94.56;99646.53;1881839;75;21235;-82
2023/05/30 05:16:00;;;;;;;12.80;5.85;;;;;;;20.07;95.07;99643.97;1881960;76;21294;-82
2023/05/30 05:19:06;;;;;;;8.60;5.58;;;;;;;20.05;95.04;99637.84;1884536;75;22112;-81
2023/05/30 05:22:12;;;;;;;9.30;5.45;;;;;;;20.01;95.89;99657.48;1844124;76;21305;-82
2023/05/30 05:25:17;;;;;;;7.80;5.22;;;;;;;20.03;95.45;99655.28;1853732;76;21274;-82
2023/05/30 05:28:23;;;;;;;10.58;5.10;;;;;;;20.15;94.65;99651.03;1862171;77;21259;-81
2023/05/30 05:31:32;;;;;;;10.23;4.92;;;;;;;20.00;96.37;99659.98;1859155;76;21273;-82
2023/05/30 05:34:37;;;;;;;9.50;5.20;;;;;;;20.12;95.18;99649.59;1883182;76;21827;-82
2023/05/30 05:37:42;;;;;;;7.83;4.55;;;;;;;20.10;95.16;99664.84;1827719;77;21294;-82
2023/05/30 05:40:49;;;;;;;8.80;4.90;;;;;;;20.10;95.06;99657.35;1872516;76;21268;-81
2023/05/30 05:43:55;;;;;;;9.53;5.05;;;;;;;20.04;95.46;99662.55;1822964;78;21894;-82
2023/05/30 05:47:00;;;;;;;5.80;4.25;;;;;;;20.07;95.27;99659.23;1827470;77;21234;-81
2023/05/30 05:50:06;;;;;;;8.30;4.72;;;;;;;20.21;93.63;99663.05;1826503;77;22020;-82
2023/05/30 05:53:12;;;;;;;11.40;4.95;;;;;;;20.13;93.74;99660.98;1826249;77;21284;-81
2023/05/30 05:56:18;;;;;;;8.00;4.90;;;;;;;19.95;95.32;99653.48;1836553;76;21271;-82
2023/05/30 05:59:24;;;;;;;7.30;4.62;;;;;;;19.62;97.02;99654.65;1843582;76;21282;-82
2023/05/30 06:02:29;;;;;;;7.10;4.87;;;;;;;19.70;96.27;99647.82;1811919;77;21290;-81
2023/05/30 06:05:35;;;;;;;8.30;5.08;;;;;;;19.87;95.54;99645.05;1810561;78;21318;-81
2023/05/30 06:08:42;;;;;;;6.50;4.58;;;;;;;19.74;96.10;99649.00;1843566;78;21293;-82
2023/05/30 06:11:48;;;;;;;10.82;4.80;;;;;;;19.80;95.51;99651.30;1827674;78;21927;-82
2023/05/30 06:14:54;;;;;;;10.25;4.75;;;;;;;19.80;95.38;99652.69;1830746;77;21304;-81
2023/05/30 06:18:01;;;;;;;11.73;5.45;;;;;;;19.97;94.67;99651.31;1829698;78;21251;-83
2023/05/30 06:21:10;;;;;;;9.18;4.45;;;;;;;19.91;95.25;99650.39;1832412;78;21348;-82
2023/05/30 06:24:15;;;;;;;10.75;5.33;;;;;;;20.11;94.24;99654.02;1833535;76;21252;-83
2023/05/30 06:27:21;;;;;;;7.67;4.87;;;;;;;19.93;94.61;99658.45;1840724;76;21243;-83
2023/05/30 06:30:26;;;;;;;7.58;5.12;;;;;;;19.85;95.22;99657.77;1836389;76;21950;-82
2023/05/30 06:33:32;;;;;;;7.22;4.37;;;;;;;20.01;94.55;99651.10;1849738;76;21240;-83
2023/05/30 06:36:37;;;;;;;10.25;5.67;;;;;;;19.75;95.53;99649.84;1801606;78;21807;-83
2023/05/30 06:39:44;;;;;;;11.60;5.33;;;;;;;19.83;95.44;99645.27;1776453;79;21657;-82
2023/05/30 06:42:51;;;;;;;7.92;4.80;;;;;;;19.75;96.13;99651.23;1821176;78;21271;-83
2023/05/30 06:45:57;;;;;;;6.87;5.00;;;;;;;19.75;96.62;99644.29;1819207;78;21244;-81
2023/05/30 06:49:03;;;;;;;9.33;5.17;;;;;;;19.94;95.57;99654.03;1832546;78;21291;-82
2023/05/30 06:52:09;;;;;;;10.05;5.62;;;;;;;19.74;97.17;99644.00;1831939;76;21236;-82
2023/05/30 06:55:15;;;;;;;12.63;5.33;;;;;;;19.89;96.66;99644.23;1833116;78;21921;-81
2023/05/30 06:58:21;;;;;;;9.98;5.60;;;;;;;19.75;97.00;99647.06;1856648;76;21895;-82
2023/05/30 07:01:27;;;;;;;8.58;5.47;;;;;;;19.65;98.45;99640.80;1830893;76;21275;-81
2023/05/30 07:04:34;;;;;;;12.03;5.67;;;;;;;19.87;97.13;99638.12;1831837;76;21303;-82
2023/05/30 07:07:42;;;;;;;11.73;5.00;;;;;;;19.63;98.69;99646.61;1823960;78;21337;-82
2023/05/30 07:10:48;;;;;;;12.15;5.40;;;;;;;19.93;97.96;99644.03;1819238;78;21286;-83
2023/05/30 07:13:55;;;;;;;8.20;4.90;;;;;;;20.07;96.43;99643.97;1830812;76;21295;-82
2023/05/30 07:17:00;;;;;;;7.62;4.87;;;;;;;20.49;93.73;99643.48;1854654;76;21544;-84
2023/05/30 07:20:06;;;;;;;6.95;4.90;;;;;;;20.17;94.69;99652.45;1864879;76;21278;-77
2023/05/30 07:23:05;;;;;;;9.00;5.57;;;;;;;20.16;95.92;99650.77;1855030;76;21318;-78
2023/05/30 07:26:10;;;;;;;10.13;5.55;;;;;;;20.20;95.93;99653.05;1857825;75;21309;-78
2023/05/30 07:29:17;;;;;;;8.18;5.15;;;;;;;20.06;97.23;99643.69;1864954;76;21855;-78
2023/05/30 07:32:23;;;;;;;10.40;5.58;;;;;;;20.31;96.10;99657.09;1855473;76;21260;-75
2023/05/30 07:35:29;;;;;;;10.58;5.90;;;;;;;20.30;95.62;99657.36;1863539;75;21858;-78
2023/05/30 07:38:35;;;;;;;8.70;5.97;;;;;;;20.52;94.59;99658.27;1864892;76;21282;-82
2023/05/30 07:41:41;;;;;;;7.80;4.95;;;;;;;20.52;93.25;99656.03;1825282;78;21274;-82
2023/05/30 07:44:48;;;;;;;15.58;6.40;;;;;;;20.39;94.22;99646.09;1860662;76;21323;-82
2023/05/30 07:47:55;;;;;;;13.28;6.35;;;;;;;20.52;93.81;99642.98;1819799;78;21273;-82
2023/05/30 07:51:00;;;;;;;11.12;6.53;;;;;;;20.53;92.83;99652.16;1864597;76;21946;-82
2023/05/30 07:54:06;;;;;;;14.47;5.97;;;;;;;20.48;93.33;99655.70;1856457;76;21296;-81
2023/05/30 07:57:15;;;;;;;14.65;6.70;;;;;;;20.60;93.55;99661.95;1858575;75;21322;-81
2023/05/30 08:00:22;;;;;;;18.13;6.33;;;;;;;20.68;92.61;99657.91;1845954;77;21259;-83
2023/05/30 08:03:28;;;;;;;11.78;6.42;;;;;;;20.65;92.82;99645.38;1845382;77;21303;-83
2023/05/30 08:06:35;;;;;;;8.83;6.37;;;;;;;20.78;92.03;99649.69;1845571;77;21274;-83
2023/05/30 08:09:40;;;;;;;12.75;6.83;;;;;;;20.93;90.76;99647.08;1841733;77;21303;-84
2023/05/30 08:12:48;;;;;;;10.80;7.03;;;;;;;21.16;89.47;99643.72;1838326;77;21321;-83
2023/05/30 08:15:54;;;;;;;12.45;7.05;;;;;;;21.41;87.59;99648.20;1832053;77;21263;-83
2023/05/30 08:19:00;;;;;;;13.08;7.50;;;;;;;21.23;88.13;99643.53;1841867;77;21263;-82
2023/05/30 08:22:06;;;;;;;14.73;6.40;;;;;;;21.17;89.45;99637.92;1835478;77;21910;-82
2023/05/30 08:25:12;;;;;;;14.47;7.40;;;;;;;21.29;88.48;99643.86;1835920;77;21298;-82
2023/05/30 08:28:20;;;;;;;9.03;7.12;;;;;;;21.37;88.08;99647.59;1839558;77;21318;-81
2023/05/30 08:31:27;;;;;;;17.00;6.35;;;;;;;21.58;86.49;99655.57;1838426;77;21244;-83
2023/05/30 08:34:34;;;;;;;9.98;5.83;;;;;;;21.32;87.89;99667.86;1836573;77;21821;-82
2023/05/30 08:37:40;;;;;;;8.70;6.03;;;;;;;21.09;88.77;99658.40;1836091;77;21244;-82
2023/05/30 08:40:53;;;;;;;11.05;5.70;;;;;;;21.47;87.16;99653.81;1845859;77;21994;-81
2023/05/30 08:43:58;;;;;;;11.63;5.67;;;;;;;21.23;88.79;99661.61;1838065;77;21317;-82
2023/05/30 08:47:07;;;;;;;9.18;5.62;;;;;;;21.69;86.44;99658.20;1843013;77;21271;-81
2023/05/30 08:50:17;;;;;;;11.28;5.12;;;;;;;21.94;85.26;99664.52;1828663;77;21286;-81
2023/05/30 08:53:22;;;;;;;7.97;5.37;;;;;;;22.11;83.62;99657.44;1835749;77;21290;-82
2023/05/30 08:56:35;;;;;;;7.45;5.60;;;;;;;22.12;83.39;99670.25;1843057;77;21862;-82
2023/05/30 08:59:40;;;;;;;6.90;5.50;;;;;;;21.91;84.22;99666.98;1833256;77;21267;-81
2023/05/30 09:02:41;;;;;;;9.55;6.28;;;;;;;22.20;82.70;99662.77;1840271;77;21263;-81
2023/05/30 09:05:46;;;;;;;7.67;5.40;;;;;;;22.55;81.49;99661.31;1840670;77;21282;-81
2023/05/30 09:08:53;;;;;;;10.35;5.40;;;;;;;22.57;82.05;99668.00;1834921;77;21256;-81
2023/05/30 09:12:01;;;;;;;10.48;6.10;;;;;;;22.76;81.11;99666.98;1843403;77;21286;-81
2023/05/30 09:15:07;;;;;;;6.80;5.28;;;;;;;22.32;82.80;99651.99;1843313;77;21302;-82
2023/05/30 09:18:14;;;;;;;12.75;6.40;;;;;;;22.34;83.22;99658.12;1847733;77;21279;-82
2023/05/30 09:21:20;;;;;;;8.65;5.83;;;;;;;22.31;83.68;99657.28;1857434;76;21267;-82
2023/05/30 09:24:26;;;;;;;8.78;6.60;;;;;;;22.41;83.02;99651.20;1809651;77;21835;-82
2023/05/30 09:27:32;;;;;;;9.55;6.10;;;;;;;22.31;82.36;99652.55;1843398;77;21852;-81
2023/05/30 09:30:37;;;;;;;9.45;5.97;;;;;;;22.48;82.14;99659.87;1826563;78;21244;-82
2023/05/30 09:33:55;;;;;;;10.63;6.00;;;;;;;22.50;82.32;99664.08;1825188;78;21256;-81
2023/05/30 09:37:03;;;;;;;14.83;5.62;;;;;;;22.50;81.79;99653.49;1822158;78;21243;-82
2023/05/30 09:40:15;;;;;;;9.33;6.58;;;;;;;22.50;81.79;99644.58;1822878;78;21291;-82
2023/05/30 09:43:22;;;;;;;11.57;6.85;;;;;;;22.62;81.20;99647.95;1824428;78;21276;-82
2023/05/30 09:46:35;;;;;;;12.55;7.42;;;;;;;22.43;82.01;99643.96;1802049;78;21287;-82
2023/05/30 09:49:42;;;;;;;10.60;7.30;;;;;;;22.48;81.92;99641.76;1822723;78;21364;-82
2023/05/30 09:52:51;;;;;;;8.43;7.53;;;;;;;22.51;82.01;99632.31;1818679;78;21267;-82
2023/05/30 09:55:57;;;;;;;19.02;7.62;;;;;;;22.70;81.43;99638.25;1821993;77;21801;-82
2023/05/30 09:59:09;;;;;;;8.90;7.22;;;;;;;22.89;81.21;99642.81;1796301;79;21804;-83
2023/05/30 10:02:13;;;;;;;14.15;8.05;;;;;;;22.75;82.00;99643.84;1820447;78;21251;-82
2023/05/30 10:05:30;;;;;;;13.85;8.15;;;;;;;22.87;82.21;99635.27;1792874;78;21716;-82
2023/05/30 10:08:35;;;;;;;9.23;7.45;;;;;;;22.92;82.50;99637.53;1788996;78;21825;-82
2023/05/30 10:11:34;;;;;;;10.65;8.80;;;;;;;23.23;82.09;99624.21;1826841;78;21264;-82
2023/05/30 10:14:39;;;;;;;17.25;8.90;;;;;;;23.30;81.86;99626.19;1829021;78;21958;-82
2023/05/30 10:17:48;;;;;;;12.18;8.43;;;;;;;23.39;80.48;99625.92;1799423;79;21646;-82
2023/05/30 10:20:55;;;;;;;12.00;8.78;;;;;;;23.44;81.01;99623.97;1831526;78;21256;-82
2023/05/30 10:24:01;;;;;;;10.25;8.63;;;;;;;23.59;80.21;99621.74;1810525;78;21271;-81
2023/05/30 10:27:09;;;;;;;10.40;8.08;;;;;;;23.59;80.03;99615.33;1787134;77;21345;-81
2023/05/30 10:30:16;;;;;;;11.80;8.30;;;;;;;23.88;78.36;99612.83;1821182;77;21264;-81
2023/05/30 10:33:23;;;;;;;11.95;9.13;;;;;;;23.96;77.87;99611.70;1814915;77;21283;-81
2023/05/30 10:36:30;;;;;;;14.98;8.70;;;;;;;24.07;76.62;99614.48;1811880;77;21266;-82
2023/05/30 10:40:16;;;;;;;12.90;9.03;;;;;;;23.83;77.32;99625.41;1822501;77;21299;-82
2023/05/30 10:43:49;;;;;;;12.85;9.63;;;;;;;23.97;76.86;99634.32;1751036;81;21282;-83
2023/05/30 10:47:37;;;;;;;11.20;8.63;;;;;;;23.68;77.64;99629.88;1808651;77;21282;-82
2023/05/30 10:50:54;;;;;;;11.73;9.73;;;;;;;23.59;77.91;99623.14;1833486;77;21308;-82
2023/05/30 10:54:00;;;;;;;15.88;9.55;;;;;;;23.40;78.93;99615.88;1838925;77;21632;-81
2023/05/30 10:57:10;;;;;;;11.80;8.78;;;;;;;23.64;77.92;99616.19;1833531;77;21260;-82
2023/05/30 11:00:30;;;;;;;12.58;9.80;;;;;;;23.80;77.57;99623.16;1844100;77;21640;-82
2023/05/30 11:03:42;;;;;;;19.50;10.25;;;;;;;23.76;77.71;99622.91;1843708;77;21220;-83
2023/05/30 11:06:52;;;;;;;12.82;10.70;;;;;;;23.91;76.95;99621.48;1839892;77;21271;-82
2023/05/30 11:10:14;;;;;;;12.93;9.10;;;;;;;23.19;79.69;99621.96;1838471;77;21922;-81
2023/05/30 11:13:20;;;;;;;11.00;9.13;;;;;;;23.44;79.59;99621.19;1839865;77;21922;-81
2023/05/30 11:16:32;;;;;;;14.45;10.23;;;;;;;23.29;79.39;99611.41;1847067;77;21318;-81
2023/05/30 11:19:46;;;;;;;16.10;11.25;;;;;;;23.53;79.20;99615.89;1817443;79;21314;-81
2023/05/30 11:22:35;;;;;;;16.05;10.63;;;;;;;23.90;78.42;99611.97;1838736;77;21295;-82
2023/05/30 11:25:41;;;;;;;14.93;10.78;;;;;;;23.65;79.32;99614.23;1849858;77;21381;-84
2023/05/30 11:28:50;;;;;;;12.85;11.33;;;;;;;23.55;80.07;99612.25;1848273;77;21269;-83
2023/05/30 11:32:00;;;;;;;17.42;11.50;;;;;;;23.42;80.23;99611.40;1815257;77;21239;-82
2023/05/30 11:35:09;;;;;;;;;;;;;;;23.65;79.41;99603.91;1818601;79;21349;-82
2023/05/30 11:38:14;;;;;;;15.75;12.47;;;;;;;23.55;80.34;99612.25;1872224;76;20276;-83
2023/05/30 11:41:22;;;;;;;18.42;12.25;;;;;;;23.61;79.95;99608.89;1865205;76;21298;-83
2023/05/30 11:44:28;;;;;;;16.07;12.63;;;;;;;23.69;80.50;99613.40;1830348;77;21314;-83
2023/05/30 11:47:32;;;;;;;16.00;12.13;;;;;;;23.57;81.12;99621.20;1843073;76;22061;-83
2023/05/30 11:50:56;;;;;;;13.65;11.60;;;;;;;23.47;80.99;99627.58;1842006;77;21271;-82
2023/05/30 11:54:03;;;;;;;16.40;12.20;;;;;;;23.45;81.13;99631.78;1835564;77;21252;-83
2023/05/30 11:57:17;;;;;;;20.43;15.05;;;;;;;23.77;79.77;99630.16;1840569;77;22237;-82
2023/05/30 12:00:22;;;;;;;18.80;13.55;;;;;;;23.53;80.82;99617.28;1848928;77;21846;-83
2023/05/30 12:03:27;;;;;;;18.82;14.05;;;;;;;23.38;81.80;99608.34;1837649;77;21251;-83
2023/05/30 12:06:34;;;;;;;15.98;13.50;;;;;;;23.27;82.73;99608.04;1845656;77;21286;-83
2023/05/30 12:09:47;;;;;;;20.57;14.98;;;;;;;23.11;83.22;99614.16;1846055;77;21354;-81
2023/05/30 12:12:53;;;;;;;17.92;14.50;;;;;;;23.25;82.98;99604.70;1845450;77;21259;-83
2023/05/30 12:15:51;;;;;;;19.98;13.18;;;;;;;23.48;81.42;99593.56;1842303;77;21295;-82
2023/05/30 12:18:45;;;;;;;20.85;14.50;;;;;;;23.61;80.83;99602.75;1842552;77;21247;-82
2023/05/30 12:21:45;;;;;;;17.27;13.28;;;;;;;23.64;80.51;99599.44;1842198;77;21299;-82
2023/05/30 12:24:42;;;;;;;16.48;12.75;;;;;;;23.44;80.72;99605.00;1848662;77;21262;-82
2023/05/30 12:41:15;;;;;;;16.85;12.13;;;;;;;21.47;91.49;99608.74;1766374;79;27833;-83
2023/05/30 12:44:25;;;;;;;17.92;13.32;;;;;;;21.24;93.29;99616.84;1755662;80;21624;-81
2023/05/30 12:47:30;;;;;;;15.48;12.47;;;;;;;21.29;93.33;99618.27;1734302;81;21742;-83
2023/05/30 12:50:22;;;;;;;20.55;13.30;;;;;;;21.34;93.38;99618.91;1793680;78;21827;-82
2023/05/30 12:53:28;;;;;;;23.47;13.80;;;;;;;21.24;93.54;99618.78;1776204;80;21267;-82
2023/05/30 12:56:33;;;;;;;19.23;13.80;;;;;;;21.11;94.38;99623.65;1788585;80;21290;-82
2023/05/30 12:59:38;;;;;;;18.17;14.10;;;;;;;20.86;95.02;99620.61;1787496;80;21306;-82
2023/05/30 13:02:44;;;;;;;17.17;12.00;;;;;;;20.62;96.42;99617.27;1777010;80;21279;-81
2023/05/30 13:05:50;;;;;;;18.82;13.83;;;;;;;20.60;97.07;99617.50;1805260;77;21290;-82
2023/05/30 13:08:55;;;;;;;17.87;11.33;;;;;;;20.44;97.70;99618.39;1789363;80;21278;-82
2023/05/30 13:12:03;;;;;;;17.57;12.03;;;;;;;20.55;97.86;99621.61;1799855;79;21302;-82
2023/05/30 13:15:08;;;;;;;15.88;10.60;;;;;;;20.51;97.79;99617.66;1794926;79;21864;-82
2023/05/30 13:18:14;;;;;;;20.48;12.60;;;;;;;20.46;98.14;99632.84;1740580;81;21303;-81
2023/05/30 13:21:14;;;;;;;13.85;11.22;;;;;;;20.47;98.04;99639.27;1765505;79;21303;-81
2023/05/30 13:24:20;;;;;;;16.42;10.78;;;;;;;20.65;97.20;99641.73;1807510;77;21275;-81
2023/05/30 13:27:25;;;;;;;15.80;10.78;;;;;;;20.48;97.95;99646.53;1803471;78;21708;-82
2023/05/30 13:30:30;;;;;;;13.72;11.00;;;;;;;20.40;98.12;99645.83;1792850;78;21278;-81
2023/05/30 13:33:36;;;;;;;13.55;9.50;;;;;;;20.34;98.44;99644.09;1793444;79;21334;-81
2023/05/30 13:36:41;;;;;;;12.95;9.65;;;;;;;20.44;99.98;99643.39;1793261;80;21875;-81
2023/05/30 13:39:47;;;;;;;17.05;10.10;;;;;;;20.51;99.18;99640.44;1793808;80;21313;-82
2023/05/30 13:42:52;;;;;;;15.32;10.40;;;;;;;20.32;99.91;99637.09;1785370;80;21294;-82
2023/05/30 13:45:58;;;;;;;12.98;10.43;;;;;;;20.27;100.00;99642.58;1774016;80;21369;-83
2023/05/30 13:49:05;;;;;;;15.23;9.90;;;;;;;20.35;99.78;99645.77;1779552;80;21305;-83
2023/05/30 13:52:11;;;;;;;16.00;10.38;;;;;;;20.25;99.87;99650.34;1787344;79;21254;-82
2023/05/30 13:55:19;;;;;;;18.73;8.33;;;;;;;20.24;100.00;99638.40;1736745;82;21320;-82
2023/05/30 13:58:25;;;;;;;13.28;9.50;;;;;;;20.45;99.22;99646.45;1758669;79;21799;-81
2023/05/30 14:01:30;;;;;;;15.28;8.78;;;;;;;20.39;98.63;99641.94;1694853;82;21946;-84
2023/05/30 14:04:37;;;;;;;30.32;10.00;;;;;;;20.43;98.82;99648.66;1751540;82;21301;-81
2023/05/30 14:07:42;;;;;;;11.33;9.35;;;;;;;20.30;99.22;99647.09;1766963;80;21258;-82
2023/05/30 14:10:48;;;;;;;12.35;9.18;;;;;;;20.27;99.75;99653.69;1763249;79;21823;-83
2023/05/30 14:13:56;;;;;;;11.33;9.45;;;;;;;20.35;99.30;99645.77;1734276;80;21278;-82
2023/05/30 14:17:03;;;;;;;13.08;9.05;;;;;;;20.36;98.91;99645.21;1772512;81;21274;-83
2023/05/30 14:20:10;;;;;;;11.18;8.53;;;;;;;20.20;99.45;99651.66;1759883;81;22001;-82
2023/05/30 14:23:17;;;;;;;13.35;9.10;;;;;;;20.07;100.00;99646.75;1803199;79;21874;-82
2023/05/30 14:26:24;;;;;;;11.70;8.68;;;;;;;20.03;100.00;99637.80;1792255;80;21293;-82
2023/05/30 14:29:31;;;;;;;12.55;8.55;;;;;;;19.85;100.00;99635.58;1792017;79;21873;-81
2023/05/30 14:32:37;;;;;;;14.80;9.80;;;;;;;19.77;100.00;99637.96;1787552;80;21183;-83
2023/05/30 14:35:44;;;;;;;17.57;9.53;;;;;;;19.85;100.00;99635.58;1772870;79;21306;-81
2023/05/30 14:38:51;;;;;;;13.68;10.28;;;;;;;19.88;100.00;99633.69;1794373;80;21274;-83
2023/05/30 14:41:56;;;;;;;15.30;9.70;;;;;;;20.02;100.00;99636.95;1778982;79;21317;-82
2023/05/30 14:45:02;;;;;;;14.18;10.65;;;;;;;20.00;100.00;99636.38;1746642;81;21322;-81
2023/05/30 14:48:11;;;;;;;17.00;11.35;;;;;;;19.95;100.00;99633.53;1761194;81;21225;-81